createdAt,value
2018-11-03T00:00:51.546Z,7.97
2018-11-03T00:03:20.182Z,8.97
2018-11-03T00:05:48.876Z,10.70
2018-11-03T00:08:17.475Z,12.00
2018-11-03T00:10:46.168Z,15.77
2018-11-03T00:13:14.858Z,14.53
2018-11-03T00:15:43.524Z,12.10
2018-11-03T00:18:12.183Z,10.33
2018-11-03T00:20:40.843Z,12.10
2018-11-03T00:23:09.688Z,9.60
2018-11-03T00:25:38.487Z,8.47
2018-11-03T00:28:07.165Z,9.00
2018-11-03T00:30:35.817Z,8.60
2018-11-03T00:33:04.707Z,8.67
2018-11-03T00:35:33.317Z,7.40
2018-11-03T00:38:02.069Z,7.37
2018-11-03T00:40:30.791Z,7.03
2018-11-03T00:42:59.433Z,7.43
2018-11-03T00:45:28.082Z,7.43
2018-11-03T00:47:56.790Z,7.23
2018-11-03T00:50:25.532Z,8.33
2018-11-03T00:52:54.214Z,7.40
2018-11-03T00:55:22.926Z,7.67
2018-11-03T00:57:51.668Z,8.00
2018-11-03T01:00:20.246Z,8.13
2018-11-03T01:02:49.858Z,7.90
2018-11-03T01:05:18.533Z,8.13
2018-11-03T01:07:47.684Z,8.20
2018-11-03T01:10:17.442Z,8.23
2018-11-03T01:12:46.080Z,10.03
2018-11-03T01:15:15.923Z,10.20
2018-11-03T01:17:44.801Z,9.50
2018-11-03T01:20:15.731Z,9.50
2018-11-03T01:22:44.477Z,9.57
2018-11-03T01:25:13.244Z,9.63
2018-11-03T01:27:42.141Z,10.40
2018-11-03T01:30:14.005Z,9.97
2018-11-03T01:32:42.830Z,10.07
2018-11-03T01:35:11.414Z,9.73
2018-11-03T01:37:40.433Z,10.43
2018-11-03T01:40:10.894Z,9.30
2018-11-03T01:42:39.683Z,8.57
2018-11-03T01:45:08.392Z,9.20
2018-11-03T01:47:37.622Z,7.90
2018-11-03T01:50:08.024Z,7.13
2018-11-03T01:52:37.672Z,7.93
2018-11-03T01:55:06.613Z,9.10
2018-11-03T01:57:35.905Z,8.63
2018-11-03T02:00:04.889Z,7.90
2018-11-03T02:02:33.537Z,8.03
2018-11-03T02:05:02.246Z,8.20
2018-11-03T02:07:31.605Z,8.23
2018-11-03T02:10:00.284Z,7.73
2018-11-03T02:12:28.929Z,7.93
2018-11-03T02:14:57.650Z,8.07
2018-11-03T02:17:26.306Z,8.03
2018-11-03T02:19:54.906Z,7.47
2018-11-03T02:22:23.598Z,8.13
2018-11-03T02:24:52.444Z,8.50
2018-11-03T02:27:22.167Z,8.87
2018-11-03T02:29:50.761Z,8.47
2018-11-03T02:32:19.394Z,8.80
2018-11-03T02:34:47.992Z,8.57
2018-11-03T02:37:16.607Z,8.20
2018-11-03T02:39:45.277Z,8.50
2018-11-03T02:42:13.881Z,8.53
2018-11-03T02:44:42.409Z,8.93
2018-11-03T02:47:11.081Z,9.20
2018-11-03T02:49:39.650Z,8.83
2018-11-03T02:52:08.290Z,9.10
2018-11-03T02:54:36.914Z,8.33
2018-11-03T02:57:05.667Z,8.97
2018-11-03T02:59:34.319Z,8.60
2018-11-03T03:02:02.937Z,9.20
2018-11-03T03:04:31.587Z,9.10
2018-11-03T03:07:00.242Z,9.23
2018-11-03T03:09:28.884Z,8.97
2018-11-03T03:11:57.499Z,8.40
2018-11-03T03:14:26.184Z,8.67
2018-11-03T03:16:54.818Z,8.57
2018-11-03T03:19:23.482Z,8.87
2018-11-03T03:21:52.162Z,9.27
2018-11-03T03:24:20.806Z,9.57
2018-11-03T03:26:49.473Z,9.43
2018-11-03T03:29:18.212Z,9.00
2018-11-03T03:31:46.795Z,9.00
2018-11-03T03:34:15.502Z,9.27
2018-11-03T03:36:44.160Z,9.47
2018-11-03T03:39:12.853Z,8.80
2018-11-03T03:41:41.593Z,9.20
2018-11-03T03:44:10.298Z,9.83
2018-11-03T03:46:38.979Z,9.97
2018-11-03T03:49:07.688Z,10.27
2018-11-03T03:51:36.346Z,10.47
2018-11-03T03:54:05.412Z,11.43
2018-11-03T03:56:34.016Z,11.60
2018-11-03T03:59:03.432Z,9.90
2018-11-03T04:01:32.094Z,10.60
2018-11-03T04:04:01.896Z,10.53
2018-11-03T04:06:30.544Z,10.50
2018-11-03T04:08:59.169Z,10.10
2018-11-03T04:11:27.821Z,10.23
2018-11-03T04:13:56.464Z,10.50
2018-11-03T04:16:25.150Z,10.33
2018-11-03T04:18:53.781Z,10.17
2018-11-03T04:21:27.919Z,10.20
2018-11-03T04:23:56.967Z,10.63
2018-11-03T04:26:26.608Z,10.37
2018-11-03T04:28:55.597Z,10.10
2018-11-03T04:31:24.312Z,10.37
2018-11-03T04:33:53.022Z,10.77
2018-11-03T04:36:21.720Z,9.73
2018-11-03T04:38:50.376Z,9.77
2018-11-03T04:41:19.011Z,10.03
2018-11-03T04:43:47.758Z,10.40
2018-11-03T04:46:16.377Z,10.53
2018-11-03T04:48:45.015Z,9.57
2018-11-03T04:51:13.635Z,9.40
2018-11-03T04:53:42.295Z,10.30
2018-11-03T04:56:11.103Z,9.97
2018-11-03T04:58:39.785Z,10.77
2018-11-03T05:01:08.425Z,10.27
2018-11-03T05:03:37.116Z,11.17
2018-11-03T05:06:05.993Z,10.23
2018-11-03T05:08:34.640Z,10.77
2018-11-03T05:11:03.632Z,11.00
2018-11-03T05:13:32.294Z,10.37
2018-11-03T05:16:00.996Z,10.10
2018-11-03T05:18:29.602Z,11.30
2018-11-03T05:20:58.267Z,11.07
2018-11-03T05:23:26.864Z,10.97
2018-11-03T05:25:55.541Z,10.80
2018-11-03T05:28:24.175Z,11.50
2018-11-03T05:30:52.864Z,10.93
2018-11-03T05:33:22.521Z,11.90
2018-11-03T05:35:51.213Z,11.07
2018-11-03T05:38:19.879Z,11.10
2018-11-03T05:40:48.541Z,11.80
2018-11-03T05:43:17.179Z,12.20
2018-11-03T05:45:45.851Z,12.13
2018-11-03T05:48:14.518Z,12.10
2018-11-03T05:50:43.207Z,12.37
2018-11-03T05:53:11.854Z,12.67
2018-11-03T05:55:41.261Z,12.83
2018-11-03T05:58:09.944Z,13.30
2018-11-03T06:00:38.657Z,13.23
2018-11-03T06:03:07.348Z,12.97
2018-11-03T06:05:35.966Z,13.37
2018-11-03T06:08:04.573Z,13.03
2018-11-03T06:10:33.144Z,12.87
2018-11-03T06:13:01.785Z,12.73
2018-11-03T06:15:30.549Z,13.00
2018-11-03T06:17:59.143Z,13.10
2018-11-03T06:20:27.832Z,13.73
2018-11-03T06:22:56.636Z,13.43
2018-11-03T06:25:25.545Z,13.70
2018-11-03T06:27:54.207Z,14.00
2018-11-03T06:30:22.815Z,14.57
2018-11-03T06:32:51.813Z,14.23
2018-11-03T06:35:20.527Z,14.03
2018-11-03T06:37:49.289Z,13.77
2018-11-03T06:40:17.994Z,13.50
2018-11-03T06:42:46.629Z,13.37
2018-11-03T06:45:15.314Z,13.50
2018-11-03T06:47:44.088Z,13.80
2018-11-03T06:50:12.814Z,13.53
2018-11-03T06:52:41.469Z,13.37
2018-11-03T06:55:10.111Z,13.07
2018-11-03T06:57:38.870Z,13.10
2018-11-03T07:00:08.600Z,12.30
2018-11-03T07:02:37.354Z,14.00
2018-11-03T07:05:07.368Z,13.03
2018-11-03T07:07:35.984Z,14.03
2018-11-03T07:10:05.230Z,18.20
2018-11-03T07:12:34.116Z,18.70
2018-11-03T07:15:02.673Z,17.90
2018-11-03T07:17:31.359Z,16.77
2018-11-03T07:20:00.030Z,28.87
2018-11-03T07:22:28.761Z,34.60
2018-11-03T07:24:57.418Z,32.27
2018-11-03T07:27:26.325Z,33.77
2018-11-03T07:29:55.778Z,20.50
2018-11-03T07:32:24.703Z,27.20
2018-11-03T07:34:53.395Z,25.87
2018-11-03T07:37:22.166Z,36.10
2018-11-03T07:39:50.940Z,32.80
2018-11-03T07:42:20.588Z,28.77
2018-11-03T07:44:49.376Z,27.43
2018-11-03T07:48:44.039Z,24.63
2018-11-03T07:51:12.678Z,25.00
2018-11-03T07:53:41.344Z,41.90
2018-11-03T07:56:10.067Z,33.13
2018-11-03T07:58:38.784Z,25.50
2018-11-03T08:01:07.500Z,23.80
2018-11-03T08:03:36.144Z,18.50
2018-11-03T08:06:04.931Z,19.23
2018-11-03T08:08:33.666Z,22.00
2018-11-03T08:11:05.326Z,19.93
2018-11-03T08:13:34.019Z,21.00
2018-11-03T08:16:02.643Z,20.03
2018-11-03T08:18:31.297Z,20.27
2018-11-03T08:21:00.112Z,19.37
2018-11-03T08:23:28.769Z,20.53
2018-11-03T08:25:57.561Z,20.27
2018-11-03T08:28:26.317Z,19.57
2018-11-03T08:30:55.080Z,18.30
2018-11-03T08:33:23.891Z,21.10
2018-11-03T08:35:52.671Z,18.63
2018-11-03T08:38:21.372Z,22.37
2018-11-03T08:40:50.224Z,24.13
2018-11-03T08:43:18.878Z,20.37
2018-11-03T08:45:47.603Z,30.17
2018-11-03T08:48:16.345Z,21.43
2018-11-03T08:50:44.933Z,19.57
2018-11-03T08:53:13.577Z,20.23
2018-11-03T08:55:42.315Z,19.80
2018-11-03T08:58:10.929Z,20.57
2018-11-03T09:00:39.541Z,19.30
2018-11-03T09:03:08.345Z,20.20
2018-11-03T09:05:36.983Z,21.00
2018-11-03T09:08:05.781Z,20.63
2018-11-03T09:10:34.373Z,19.83
2018-11-03T09:13:03.058Z,21.20
2018-11-03T09:15:32.418Z,21.27
2018-11-03T09:18:01.042Z,19.63
2018-11-03T09:20:29.860Z,20.13
2018-11-03T09:22:58.544Z,19.10
2018-11-03T09:25:27.712Z,23.87
2018-11-03T09:27:56.405Z,27.77
2018-11-03T09:30:35.857Z,25.00
2018-11-03T09:33:04.749Z,20.20
2018-11-03T09:35:33.684Z,26.90
2018-11-03T09:38:02.357Z,24.63
2018-11-03T09:40:58.792Z,21.70
2018-11-03T09:43:28.373Z,20.80
2018-11-03T09:45:56.933Z,20.77
2018-11-03T09:48:25.617Z,24.17
2018-11-03T09:50:54.879Z,21.50
2018-11-03T09:53:23.539Z,21.33
2018-11-03T09:55:52.304Z,21.27
2018-11-03T09:58:21.734Z,21.57
2018-11-03T10:00:51.089Z,21.33
2018-11-03T10:03:19.828Z,21.33
2018-11-03T10:05:48.573Z,21.73
2018-11-03T10:08:17.291Z,21.17
2018-11-03T10:10:46.357Z,20.50
2018-11-03T10:13:15.095Z,22.37
2018-11-03T10:15:43.834Z,21.50
2018-11-03T10:18:14.021Z,22.47
2018-11-03T10:20:42.707Z,21.27
2018-11-03T10:23:11.350Z,20.80
2018-11-03T10:25:40.024Z,21.53
2018-11-03T10:28:08.747Z,20.73
2018-11-03T10:30:37.583Z,20.53
2018-11-03T10:33:06.737Z,20.97
2018-11-03T10:35:35.438Z,20.17
2018-11-03T10:38:04.195Z,20.47
2018-11-03T10:40:33.162Z,19.43
2018-11-03T10:43:03.994Z,19.90
2018-11-03T10:45:34.600Z,20.83
2018-11-03T10:48:04.002Z,20.00
2018-11-03T10:50:32.742Z,21.10
2018-11-03T10:53:06.653Z,19.63
2018-11-03T10:55:36.354Z,20.20
2018-11-03T10:58:05.234Z,20.00
2018-11-03T11:03:30.071Z,19.73
2018-11-03T11:06:10.319Z,19.07
2018-11-03T11:08:44.242Z,20.37
2018-11-03T11:11:18.323Z,19.83
2018-11-03T11:13:47.461Z,20.10
2018-11-03T11:16:16.225Z,19.10
2018-11-03T11:18:44.911Z,20.30
2018-11-03T11:21:13.625Z,19.63
2018-11-03T11:23:42.283Z,18.60
2018-11-03T11:26:10.911Z,20.07
2018-11-03T11:28:39.676Z,19.73
2018-11-03T11:31:08.352Z,20.70
2018-11-03T11:33:37.032Z,19.37
2018-11-03T11:36:06.190Z,19.70
2018-11-03T11:38:34.933Z,16.50
2018-11-03T11:41:03.687Z,16.73
2018-11-03T11:43:32.453Z,16.63
2018-11-03T11:46:01.124Z,16.40
2018-11-03T11:48:29.866Z,15.93
2018-11-03T11:50:58.589Z,15.60
2018-11-03T11:53:27.235Z,15.43
2018-11-03T11:55:55.948Z,16.10
2018-11-03T11:58:25.415Z,15.77
2018-11-03T12:00:54.200Z,15.70
2018-11-03T12:03:22.949Z,15.40
2018-11-03T12:05:51.657Z,14.53
2018-11-03T12:08:20.268Z,15.10
2018-11-03T12:10:48.935Z,14.33
2018-11-03T12:13:17.704Z,13.63
2018-11-03T12:15:46.384Z,14.30
2018-11-03T12:18:15.133Z,14.47
2018-11-03T12:20:44.836Z,12.87
2018-11-03T12:23:13.515Z,12.57
2018-11-03T12:25:42.313Z,11.97
2018-11-03T12:28:10.899Z,11.73
2018-11-03T12:30:39.637Z,11.07
2018-11-03T12:33:08.630Z,11.30
2018-11-03T12:35:37.403Z,11.13
2018-11-03T12:38:06.345Z,12.13
2018-11-03T12:40:35.195Z,11.10
2018-11-03T12:43:03.975Z,10.07
2018-11-03T12:45:32.713Z,10.17
2018-11-03T12:48:01.451Z,10.87
2018-11-03T12:50:30.102Z,9.47
2018-11-03T12:52:58.744Z,8.60
2018-11-03T12:55:27.487Z,8.33
2018-11-03T12:57:56.260Z,7.63
2018-11-03T13:00:24.974Z,8.07
2018-11-03T13:02:53.695Z,7.07
2018-11-03T13:05:22.428Z,7.13
2018-11-03T13:07:51.198Z,7.80
2018-11-03T13:10:20.783Z,7.40
2018-11-03T13:12:49.604Z,7.67
2018-11-03T13:15:18.357Z,8.33
2018-11-03T13:17:47.511Z,7.63
2018-11-03T13:20:16.315Z,8.30
2018-11-03T13:22:45.026Z,8.70
2018-11-03T13:25:13.830Z,9.63
2018-11-03T13:27:43.099Z,9.73
2018-11-03T13:30:13.677Z,10.87
2018-11-03T13:32:42.431Z,9.30
2018-11-03T13:35:12.296Z,9.80
2018-11-03T13:37:41.336Z,9.70
2018-11-03T13:40:11.655Z,8.90
2018-11-03T13:42:40.660Z,8.63
2018-11-03T13:45:10.060Z,8.87
2018-11-03T13:47:39.326Z,9.27
2018-11-03T13:50:13.024Z,9.30
2018-11-03T13:52:43.733Z,10.20
2018-11-03T13:55:12.417Z,9.50
2018-11-03T13:57:42.317Z,8.10
2018-11-03T14:00:12.206Z,8.83
2018-11-03T14:02:41.878Z,8.50
2018-11-03T14:05:11.375Z,8.97
2018-11-03T14:07:40.015Z,9.10
2018-11-03T14:10:13.083Z,8.63
2018-11-03T14:12:42.302Z,8.60
2018-11-03T14:15:12.598Z,9.90
2018-11-03T14:17:41.334Z,10.33
2018-11-03T14:20:11.842Z,9.83
2018-11-03T14:22:40.956Z,9.80
2018-11-03T14:25:11.262Z,9.13
2018-11-03T14:27:40.366Z,9.03
2018-11-03T14:30:10.342Z,9.93
2018-11-03T14:32:39.266Z,9.63
2018-11-03T14:35:08.958Z,8.63
2018-11-03T14:37:37.811Z,9.20
2018-11-03T14:40:09.057Z,9.50
2018-11-03T14:42:37.973Z,9.63
2018-11-03T14:45:10.039Z,9.67
2018-11-03T14:47:38.741Z,9.50
2018-11-03T14:50:08.551Z,9.83
2018-11-03T14:52:40.057Z,9.50
2018-11-03T14:55:10.719Z,9.70
2018-11-03T14:57:39.669Z,9.30
2018-11-03T15:00:13.045Z,10.33
2018-11-03T15:02:41.994Z,9.60
2018-11-03T15:05:11.418Z,10.33
2018-11-03T15:07:40.409Z,10.50
2018-11-03T15:10:10.559Z,11.37
2018-11-03T15:12:39.657Z,11.10
2018-11-03T15:15:10.324Z,11.73
2018-11-03T15:17:39.206Z,11.70
2018-11-03T15:20:09.074Z,11.97
2018-11-03T15:22:37.967Z,11.70
2018-11-03T15:25:07.390Z,11.03
2018-11-03T15:27:36.206Z,10.30
2018-11-03T15:30:05.468Z,11.03
2018-11-03T15:32:34.206Z,11.70
2018-11-03T15:35:03.109Z,13.37
2018-11-03T15:37:31.789Z,17.60
2018-11-03T15:40:00.599Z,14.57
2018-11-03T15:42:29.341Z,13.53
2018-11-03T15:44:58.368Z,13.13
2018-11-03T15:47:27.174Z,13.57
2018-11-03T15:49:55.874Z,12.83
2018-11-03T15:52:24.695Z,12.80
2018-11-03T15:54:53.742Z,12.90
2018-11-03T15:57:22.434Z,12.87
2018-11-03T15:59:52.028Z,12.60
2018-11-03T16:02:20.991Z,12.40
2018-11-03T16:04:49.696Z,12.67
2018-11-03T16:07:18.628Z,13.23
2018-11-03T16:09:47.482Z,12.60
2018-11-03T16:12:16.343Z,12.70
2018-11-03T16:14:44.978Z,12.63
2018-11-03T16:17:13.626Z,12.57
2018-11-03T16:19:42.809Z,11.97
2018-11-03T16:22:11.797Z,12.50
2018-11-03T16:24:40.654Z,13.30
2018-11-03T16:27:09.513Z,12.23
2018-11-03T16:29:38.693Z,13.63
2018-11-03T16:32:07.552Z,15.03
2018-11-03T16:34:36.442Z,17.87
2018-11-03T16:37:05.443Z,33.07
2018-11-03T16:39:34.188Z,32.30
2018-11-03T16:42:03.006Z,24.37
2018-11-03T16:44:31.748Z,14.73
2018-11-03T16:47:00.518Z,13.50
2018-11-03T16:49:29.874Z,13.43
2018-11-03T16:51:58.509Z,12.77
2018-11-03T16:54:28.328Z,13.07
2018-11-03T16:56:57.238Z,13.53
2018-11-03T16:59:26.091Z,13.50
2018-11-03T17:01:54.887Z,13.70
2018-11-03T17:04:23.781Z,12.90
2018-11-03T17:06:52.748Z,12.53
2018-11-03T17:09:21.385Z,13.53
2018-11-03T17:11:50.161Z,13.53
2018-11-03T17:14:18.813Z,13.17
2018-11-03T17:16:47.447Z,14.27
2018-11-03T17:19:16.260Z,14.10
2018-11-03T17:21:45.158Z,13.70
2018-11-03T17:24:13.816Z,14.37
2018-11-03T17:26:43.208Z,14.70
2018-11-03T17:29:11.902Z,14.73
2018-11-03T17:31:40.633Z,14.80
2018-11-03T17:34:09.772Z,16.00
2018-11-03T17:36:38.826Z,15.37
2018-11-03T17:39:09.737Z,16.57
2018-11-03T17:41:38.536Z,17.97
2018-11-03T17:44:07.339Z,18.40
2018-11-03T17:46:36.482Z,17.10
2018-11-03T17:49:15.705Z,15.80
2018-11-03T17:51:50.370Z,17.53
2018-11-03T17:54:19.339Z,17.00
2018-11-03T17:56:48.179Z,17.73
2018-11-03T17:59:17.039Z,16.47
2018-11-03T18:01:45.884Z,15.13
2018-11-03T18:04:14.909Z,17.00
2018-11-03T18:06:43.843Z,17.37
2018-11-03T18:09:12.764Z,17.50
2018-11-03T18:11:41.551Z,17.23
2018-11-03T18:14:10.361Z,17.80
2018-11-03T18:16:39.208Z,19.40
2018-11-03T18:19:08.130Z,17.87
2018-11-03T18:21:37.261Z,18.90
2018-11-03T18:24:07.034Z,19.60
2018-11-03T18:26:35.965Z,18.33
2018-11-03T18:29:04.776Z,18.67
2018-11-03T18:31:33.596Z,18.20
2018-11-03T18:34:02.595Z,18.87
2018-11-03T18:36:31.383Z,17.30
2018-11-03T18:39:00.141Z,18.10
2018-11-03T18:41:29.046Z,21.23
2018-11-03T18:43:58.017Z,21.77
2018-11-03T18:46:30.988Z,26.27
2018-11-03T18:48:59.761Z,26.17
2018-11-03T18:51:28.566Z,25.83
2018-11-03T18:53:57.292Z,24.23
2018-11-03T18:56:26.122Z,25.20
2018-11-03T18:58:55.382Z,24.80
2018-11-03T19:01:24.308Z,24.30
2018-11-03T19:03:53.999Z,23.47
2018-11-03T19:06:23.166Z,24.13
2018-11-03T19:08:52.004Z,24.40
2018-11-03T19:11:21.086Z,22.13
2018-11-03T19:14:12.423Z,22.90
2018-11-03T19:16:41.287Z,21.30
2018-11-03T19:19:10.585Z,20.97
2018-11-03T19:21:39.378Z,20.63
2018-11-03T19:24:08.300Z,19.53
2018-11-03T19:26:36.957Z,19.73
2018-11-03T19:29:05.904Z,19.20
2018-11-03T19:31:34.833Z,19.30
2018-11-03T19:34:04.183Z,19.00
2018-11-03T19:36:33.034Z,19.37
2018-11-03T19:39:01.800Z,18.43
2018-11-03T19:41:30.715Z,18.80
2018-11-03T19:43:59.561Z,18.03
2018-11-03T19:46:28.485Z,18.17
2018-11-03T19:48:57.342Z,17.80
2018-11-03T19:51:26.425Z,20.00
2018-11-03T19:53:55.272Z,20.53
2018-11-03T19:56:24.109Z,19.70
2018-11-03T19:58:53.054Z,18.97
2018-11-03T20:01:21.881Z,19.10
2018-11-03T20:03:50.625Z,20.30
2018-11-03T20:06:19.718Z,19.13
2018-11-03T20:08:48.919Z,21.37
2018-11-03T20:11:17.830Z,19.80
2018-11-03T20:13:46.689Z,19.53
2018-11-03T20:16:15.394Z,20.37
2018-11-03T20:18:44.163Z,21.03
2018-11-03T20:21:12.943Z,26.03
2018-11-03T20:23:41.715Z,28.03
2018-11-03T20:26:10.441Z,25.87
2018-11-03T20:28:39.344Z,23.17
2018-11-03T20:31:08.024Z,20.70
2018-11-03T20:33:36.837Z,18.63
2018-11-03T20:36:05.698Z,20.67
2018-11-03T20:38:34.405Z,19.50
2018-11-03T20:41:03.197Z,18.33
2018-11-03T20:43:31.977Z,18.07
2018-11-03T20:46:00.772Z,17.50
2018-11-03T20:48:29.546Z,16.77
2018-11-03T20:51:03.681Z,16.83
2018-11-03T20:53:32.628Z,15.93
2018-11-03T20:56:01.501Z,17.10
2018-11-03T20:58:30.375Z,14.90
2018-11-03T21:00:59.169Z,15.50
2018-11-03T21:03:28.184Z,15.03
2018-11-03T21:05:56.884Z,14.03
2018-11-03T21:08:25.894Z,14.87
2018-11-03T21:10:54.831Z,14.30
2018-11-03T21:13:23.751Z,14.30
2018-11-03T21:15:52.617Z,14.10
2018-11-03T21:18:21.332Z,14.20
2018-11-03T21:20:50.092Z,14.90
2018-11-03T21:23:19.102Z,14.80
2018-11-03T21:25:48.003Z,14.40
2018-11-03T21:28:16.728Z,14.75
2018-11-03T21:30:45.552Z,14.00
2018-11-03T21:33:14.719Z,14.23
2018-11-03T21:35:43.156Z,15.73
2018-11-03T21:38:11.991Z,14.63
2018-11-03T21:40:40.770Z,15.30
2018-11-03T21:43:09.564Z,14.67
2018-11-03T21:45:38.451Z,14.50
2018-11-03T21:48:07.608Z,15.27
2018-11-03T21:50:36.334Z,16.10
2018-11-03T21:53:05.515Z,16.50
2018-11-03T21:55:34.267Z,16.90
2018-11-03T21:58:03.030Z,14.17
2018-11-03T22:00:31.900Z,14.67
2018-11-03T22:03:00.685Z,14.80
2018-11-03T22:05:29.401Z,13.87
2018-11-03T22:07:58.223Z,14.63
2018-11-03T22:10:27.140Z,14.27
2018-11-03T22:12:55.870Z,14.07
2018-11-03T22:15:24.780Z,13.20
2018-11-03T22:17:54.764Z,13.60
2018-11-03T22:20:25.218Z,13.70
2018-11-03T22:22:54.854Z,14.30
2018-11-03T22:25:23.714Z,14.00
2018-11-03T22:27:52.561Z,14.17
2018-11-03T22:30:21.332Z,13.70
2018-11-03T22:32:50.221Z,15.17
2018-11-03T22:35:19.135Z,13.60
2018-11-03T22:37:48.831Z,14.13
2018-11-03T22:40:17.643Z,13.87
2018-11-03T22:42:46.366Z,14.43
2018-11-03T22:45:15.227Z,14.70
2018-11-03T22:47:43.960Z,14.47
2018-11-03T22:50:13.272Z,14.10
2018-11-03T22:52:42.127Z,13.73
2018-11-03T22:55:10.860Z,15.20
2018-11-03T22:57:39.527Z,14.43
2018-11-03T23:00:11.332Z,14.17
2018-11-03T23:02:40.223Z,14.87
2018-11-03T23:05:10.136Z,15.33
2018-11-03T23:07:38.848Z,15.03
2018-11-03T23:10:07.826Z,16.17
2018-11-03T23:12:37.402Z,15.87
2018-11-03T23:15:07.356Z,16.17
2018-11-03T23:17:36.178Z,15.80
2018-11-03T23:20:05.987Z,16.90
2018-11-03T23:22:34.775Z,14.97
2018-11-03T23:25:03.561Z,17.33
2018-11-03T23:27:32.287Z,18.87
2018-11-03T23:30:02.195Z,17.37
2018-11-03T23:32:30.780Z,15.57
2018-11-03T23:34:59.543Z,14.33
2018-11-03T23:37:28.472Z,15.03
2018-11-03T23:39:57.184Z,13.87
2018-11-03T23:42:25.906Z,15.00
2018-11-03T23:44:54.605Z,13.60
2018-11-03T23:47:23.338Z,13.87
2018-11-03T23:49:52.101Z,14.27
2018-11-03T23:52:25.017Z,13.33
2018-11-03T23:54:53.747Z,13.50
2018-11-03T23:57:22.425Z,14.03
2018-11-03T23:59:51.329Z,13.70
